Time;durP1;ratioP1;P1;durP2;ratioP2;P2;SDS_P1;SDS_P2;PMS_P1;PMS_P2;Temp;Humidity;BMP_temperature;BMP_pressure;BME280_temperature;BME280_humidity;BME280_pressure;Samples;Min_cycle;Max_cycle;Signal;HPM_P1;HPM_P2
2023/06/02 00:01:33;;;;;;;;;4.25;4.25;;;;;13.28;85.24;98064.59;4955256;28;104018;-70
2023/06/02 00:04:14;;;;;;;;;4.00;4.00;;;;;13.27;86.80;98067.56;4957650;28;101936;-70
2023/06/02 00:07:03;;;;;;;;;3.75;3.75;;;;;13.23;86.09;98071.81;4953319;28;103224;-69
2023/06/02 00:09:49;;;;;;;;;5.00;5.00;;;;;13.21;85.57;98066.59;4953378;28;103115;-69
2023/06/02 00:12:29;;;;;;;;;4.75;4.75;;;;;13.19;86.67;98068.69;4951959;28;108258;-70
2023/06/02 00:15:15;;;;;;;;;3.00;3.00;;;;;13.13;86.25;98069.66;4954199;28;106869;-70
2023/06/02 00:17:49;;;;;;;;;5.00;5.00;;;;;13.10;85.88;98070.09;4953491;28;102061;-70
2023/06/02 00:20:17;;;;;;;;;5.00;4.50;;;;;13.03;85.87;98074.75;4958371;28;102131;-70
2023/06/02 00:22:46;;;;;;;;;4.75;4.50;;;;;12.96;84.88;98072.16;4958140;28;104022;-70
2023/06/02 00:25:13;;;;;;;;;4.25;4.25;;;;;12.88;86.98;98077.88;4955412;28;102355;-71
2023/06/02 00:27:40;;;;;;;;;2.25;2.00;;;;;12.82;87.86;98072.53;4955610;28;102292;-69
2023/06/02 00:30:07;;;;;;;;;3.25;2.75;;;;;12.74;88.45;98070.16;4957953;28;102237;-70
2023/06/02 00:32:34;;;;;;;;;5.25;4.25;;;;;12.72;87.70;98072.25;4955688;28;109590;-70
2023/06/02 00:35:02;;;;;;;;;3.25;3.25;;;;;12.70;87.90;98069.75;4952919;28;102199;-70
2023/06/02 00:37:29;;;;;;;;;4.00;4.00;;;;;12.70;86.79;98068.94;4954614;28;102382;-70
2023/06/02 00:39:56;;;;;;;;;4.50;4.00;;;;;12.69;86.57;98073.53;4954460;28;102918;-70
2023/06/02 00:42:23;;;;;;;;;3.25;3.00;;;;;12.68;86.96;98073.75;4944579;28;103974;-70
2023/06/02 00:44:50;;;;;;;;;5.00;5.00;;;;;12.68;87.28;98071.03;4954435;28;102026;-70
2023/06/02 00:47:16;;;;;;;;;3.75;3.00;;;;;12.67;87.36;98072.09;4952131;28;103823;-70
2023/06/02 00:49:43;;;;;;;;;4.00;4.00;;;;;12.64;87.03;98069.84;4954485;28;102074;-70
2023/06/02 00:52:13;;;;;;;;;6.00;5.25;;;;;12.61;86.65;98070.31;4956089;28;104144;-71
2023/06/02 00:54:40;;;;;;;;;3.75;3.75;;;;;12.61;86.87;98070.31;4955767;28;102620;-69
2023/06/02 00:57:07;;;;;;;;;5.00;5.00;;;;;12.57;86.46;98060.94;4955584;28;102997;-71
2023/06/02 00:59:36;;;;;;;;;4.50;4.00;;;;;12.54;86.82;98062.22;4950798;28;102031;-71
2023/06/02 01:02:03;;;;;;;;;2.00;2.00;;;;;12.48;89.16;98061.25;4950431;28;104006;-71
2023/06/02 01:04:46;;;;;;;;;4.00;4.00;;;;;12.43;87.82;98055.66;4950548;28;102700;-71
2023/06/02 01:07:39;;;;;;;;;3.25;3.25;;;;;12.42;88.58;98056.75;4949166;28;101886;-71
2023/06/02 01:10:27;;;;;;;;;4.00;4.00;;;;;12.42;87.54;98059.47;4953423;28;102221;-71
2023/06/02 01:13:12;;;;;;;;;2.75;2.25;;;;;12.38;88.09;98055.53;4952994;28;104193;-71
2023/06/02 01:15:55;;;;;;;;;3.25;3.25;;;;;12.35;88.63;98063.28;4948294;28;106563;-71
2023/06/02 01:18:35;;;;;;;;;3.75;3.75;;;;;12.28;87.50;98057.94;4947839;28;102364;-71
2023/06/02 01:21:05;;;;;;;;;4.00;3.00;;;;;12.23;88.36;98054.25;4954431;28;103319;-71
2023/06/02 01:23:35;;;;;;;;;5.00;5.00;;;;;12.18;86.79;98060.34;4952597;28;104047;-71
2023/06/02 01:26:08;;;;;;;;;9.00;6.75;;;;;12.05;89.22;98058.59;4956828;28;102299;-71
2023/06/02 01:28:36;;;;;;;;;5.00;5.00;;;;;11.84;91.71;98077.16;4955041;28;102478;-72
2023/06/02 01:31:25;;;;;;;;;7.00;6.50;;;;;11.78;91.09;98078.84;4955888;28;102285;-71
2023/06/02 01:34:03;;;;;;;;;3.25;3.25;;;;;11.74;91.08;98074.09;4949566;28;107918;-71
2023/06/02 01:36:35;;;;;;;;;7.00;7.00;;;;;11.72;89.90;98065.31;4952710;28;102089;-71
2023/06/02 01:39:03;;;;;;;;;7.50;6.50;;;;;11.57;92.77;98074.59;4953426;28;101852;-71
2023/06/02 01:41:33;;;;;;;;;5.50;5.50;;;;;11.50;93.47;98073.00;4954709;28;102045;-71
2023/06/02 01:44:02;;;;;;;;;5.25;5.00;;;;;11.39;92.92;98061.00;4951503;28;104072;-71
2023/06/02 01:46:29;;;;;;;;;5.75;5.50;;;;;11.50;91.61;98071.13;4953391;28;103796;-71
2023/06/02 01:48:56;;;;;;;;;6.75;4.00;;;;;11.51;91.66;98070.09;4952521;28;102286;-71
2023/06/02 01:51:23;;;;;;;;;3.00;2.00;;;;;11.49;91.66;98076.75;4954100;28;102346;-71
2023/06/02 01:53:50;;;;;;;;;3.75;3.50;;;;;11.47;91.00;98074.28;4954225;28;104098;-71
2023/06/02 01:56:17;;;;;;;;;5.00;4.00;;;;;11.44;91.32;98074.69;4955318;28;102226;-71
2023/06/02 01:58:46;;;;;;;;;4.50;4.50;;;;;11.41;92.25;98080.56;4949256;28;102591;-71
2023/06/02 02:01:13;;;;;;;;;5.00;4.00;;;;;11.37;93.46;98073.09;4955866;28;102352;-71
2023/06/02 02:03:40;;;;;;;;;4.00;4.00;;;;;11.34;93.52;98082.50;4952625;28;104358;-69
2023/06/02 02:06:07;;;;;;;;;5.00;4.00;;;;;11.34;92.79;98065.44;4953365;28;102269;-71
2023/06/02 02:08:34;;;;;;;;;2.25;2.00;;;;;11.38;93.13;98080.19;4956345;28;102071;-72
2023/06/02 02:11:01;;;;;;;;;5.75;4.00;;;;;11.34;92.42;98077.09;4956041;28;102745;-71
2023/06/02 02:13:28;;;;;;;;;4.50;4.00;;;;;11.34;91.94;98074.38;4951242;28;104102;-71
2023/06/02 02:15:55;;;;;;;;;2.00;1.25;;;;;11.37;92.65;98090.19;4955136;28;102372;-71
2023/06/02 02:18:24;;;;;;;;;4.00;4.00;;;;;11.39;91.74;98087.25;4954235;28;101814;-71
2023/06/02 02:20:51;;;;;;;;;4.50;3.50;;;;;11.38;92.39;98091.84;4955518;28;104282;-71
2023/06/02 02:23:18;;;;;;;;;3.00;3.00;;;;;11.38;92.38;98081.00;4950516;28;104113;-71
2023/06/02 02:25:45;;;;;;;;;3.75;3.75;;;;;11.38;92.11;98096.41;4950425;28;102646;-71
2023/06/02 02:28:12;;;;;;;;;4.00;3.50;;;;;11.36;92.77;98088.50;4956423;28;101903;-71
2023/06/02 02:30:39;;;;;;;;;2.75;2.00;;;;;11.36;93.68;98088.50;4958131;28;101952;-71
2023/06/02 02:33:06;;;;;;;;;5.00;2.00;;;;;11.35;93.33;98083.31;4952464;28;108538;-70
2023/06/02 02:35:34;;;;;;;;;2.25;2.25;;;;;11.40;93.33;98091.59;4956993;28;102283;-71
2023/06/02 02:38:01;;;;;;;;;2.25;2.25;;;;;11.41;93.61;98077.03;4954392;28;101884;-71
2023/06/02 02:40:28;;;;;;;;;3.00;3.00;;;;;11.47;93.71;98085.13;4954244;28;102245;-71
2023/06/02 02:42:55;;;;;;;;;3.50;3.25;;;;;11.47;93.76;98082.41;4951742;28;104000;-71
2023/06/02 02:45:22;;;;;;;;;4.00;4.00;;;;;11.51;93.19;98091.75;4955444;28;102454;-71
2023/06/02 02:47:49;;;;;;;;;2.25;2.25;;;;;11.52;92.59;98092.59;4952408;28;101984;-71
2023/06/02 02:50:16;;;;;;;;;3.00;3.00;;;;;11.51;92.13;98091.75;4955801;28;102394;-70
2023/06/02 02:52:44;;;;;;;;;4.00;3.25;;;;;11.55;91.80;98098.38;4952639;28;104153;-71
2023/06/02 02:55:11;;;;;;;;;3.50;3.50;;;;;11.54;91.71;98102.13;4955511;28;101984;-69
2023/06/02 02:57:38;;;;;;;;;2.00;2.00;;;;;11.53;92.05;98105.03;4956655;28;101937;-71
2023/06/02 03:00:08;;;;;;;;;2.00;2.00;;;;;11.51;92.08;98105.28;4955360;28;102492;-71
2023/06/02 03:02:36;;;;;;;;;3.00;3.00;;;;;11.50;91.81;98106.31;4955438;28;104032;-71
2023/06/02 03:05:05;;;;;;;;;3.75;3.00;;;;;11.43;94.03;98110.97;4955733;28;102282;-71
2023/06/02 03:07:39;;;;;;;;;3.00;3.00;;;;;11.32;94.42;98100.81;4951331;28;101897;-71
2023/06/02 03:10:07;;;;;;;;;4.50;4.50;;;;;11.43;93.15;98104.72;4958136;28;102017;-71
2023/06/02 03:12:34;;;;;;;;;5.25;5.00;;;;;11.37;95.18;98114.53;4953672;28;104368;-71
2023/06/02 03:15:01;;;;;;;;;5.00;5.00;;;;;11.40;94.67;98113.25;4952149;28;102219;-71
2023/06/02 03:17:28;;;;;;;;;3.25;3.25;;;;;11.45;95.01;98118.84;4950843;28;102138;-71
2023/06/02 03:19:55;;;;;;;;;5.50;2.75;;;;;11.48;94.83;98124.66;4954274;28;102587;-71
2023/06/02 03:22:22;;;;;;;;;4.50;4.25;;;;;11.55;94.12;98124.63;4950341;28;104011;-71
2023/06/02 03:24:50;;;;;;;;;2.00;2.00;;;;;11.59;94.17;98126.66;4953936;28;101890;-71
2023/06/02 03:27:18;;;;;;;;;3.00;2.00;;;;;11.63;93.83;98130.59;4957412;28;102233;-71
2023/06/02 03:29:45;;;;;;;;;3.00;3.00;;;;;11.70;94.11;98127.03;4957843;28;102263;-71
2023/06/02 03:32:12;;;;;;;;;3.75;3.00;;;;;11.73;93.99;98135.56;4957405;28;104108;-71
2023/06/02 03:34:40;;;;;;;;;1.50;1.50;;;;;11.77;93.87;98138.66;4959051;28;102164;-71
2023/06/02 03:37:07;;;;;;;;;2.75;2.50;;;;;11.77;93.38;98138.66;4955579;28;102511;-71
2023/06/02 03:39:34;;;;;;;;;3.25;3.00;;;;;11.83;92.77;98145.91;4958690;28;102661;-71
2023/06/02 03:42:01;;;;;;;;;2.75;2.25;;;;;11.88;92.56;98149.63;4957445;28;104132;-71
2023/06/02 03:44:28;;;;;;;;;2.25;2.00;;;;;11.95;92.30;98157.69;4957839;28;102451;-71
2023/06/02 03:46:55;;;;;;;;;3.00;2.00;;;;;11.98;92.26;98158.06;4954757;28;101805;-71
2023/06/02 03:49:26;;;;;;;;;4.25;3.25;;;;;12.03;91.52;98158.25;4952864;28;101999;-71
2023/06/02 03:51:53;;;;;;;;;2.00;2.00;;;;;12.06;92.33;98170.53;4956699;28;104208;-70
2023/06/02 03:54:20;;;;;;;;;3.25;2.00;;;;;12.07;94.12;98173.00;4956742;28;107636;-71
2023/06/02 03:56:49;;;;;;;;;1.50;1.00;;;;;12.14;93.62;98172.13;4958543;28;102221;-70
2023/06/02 03:59:16;;;;;;;;;4.50;4.25;;;;;12.20;91.96;98166.66;4959364;28;102028;-70
2023/06/02 04:01:43;;;;;;;;;3.00;3.00;;;;;12.29;91.29;98176.16;4955905;28;104174;-71
2023/06/02 04:04:11;;;;;;;;;2.00;2.00;;;;;12.40;91.87;98175.44;4956926;28;101989;-71
2023/06/02 04:06:42;;;;;;;;;3.50;3.50;;;;;12.49;91.55;98176.81;4948098;28;102435;-71
2023/06/02 04:09:13;;;;;;;;;3.00;2.25;;;;;12.50;90.40;98162.19;4955257;28;102096;-71
2023/06/02 04:11:40;;;;;;;;;2.50;1.75;;;;;12.67;89.36;98175.16;4953222;28;108743;-71
2023/06/02 04:14:08;;;;;;;;;3.75;2.00;;;;;12.79;89.90;98179.63;4954709;28;102343;-71
2023/06/02 04:16:35;;;;;;;;;2.75;2.75;;;;;12.89;88.54;98181.81;4954191;28;102131;-71
2023/06/02 04:19:02;;;;;;;;;3.00;2.00;;;;;12.93;89.01;98183.00;4953779;28;102033;-71
2023/06/02 04:21:29;;;;;;;;;4.00;4.00;;;;;13.05;89.01;98181.22;4950310;28;104000;-71
2023/06/02 04:23:56;;;;;;;;;3.00;3.00;;;;;13.14;88.79;98179.06;4954965;28;102067;-70
2023/06/02 04:26:23;;;;;;;;;9.25;8.00;;;;;13.24;87.16;98168.47;4956842;28;101934;-71
2023/06/02 04:28:51;;;;;;;;;5.00;4.75;;;;;13.38;86.54;98175.38;4959425;28;103175;-71
2023/06/02 04:31:26;;;;;;;;;8.00;6.25;;;;;13.47;85.20;98179.44;4957142;28;104029;-70
2023/06/02 04:33:55;;;;;;;;;9.50;7.50;;;;;13.55;84.60;98175.59;4956371;28;102139;-71
2023/06/02 04:36:21;;;;;;;;;13.75;12.00;;;;;13.57;83.60;98184.31;4953547;28;102062;-70
2023/06/02 04:38:48;;;;;;;;;16.00;13.00;;;;;13.71;84.40;98174.94;4953170;28;101988;-70
2023/06/02 04:41:15;;;;;;;;;12.50;9.75;;;;;14.29;81.73;98173.16;4955171;28;104001;-73
2023/06/02 04:43:42;;;;;;;;;10.25;9.00;;;;;14.76;78.19;98167.75;4952260;28;102012;-69
2023/06/02 04:46:10;;;;;;;;;11.50;11.25;;;;;15.09;78.52;98173.38;4956710;28;102356;-71
2023/06/02 04:48:39;;;;;;;;;10.75;9.00;;;;;15.58;76.31;98176.56;4957085;28;102011;-71
2023/06/02 04:51:07;;;;;;;;;6.50;5.50;;;;;15.88;73.71;98168.13;4951642;28;109221;-70
2023/06/02 04:53:34;;;;;;;;;5.50;4.75;;;;;16.02;73.76;98166.75;4957675;28;102361;-71
2023/06/02 04:56:02;;;;;;;;;10.25;9.25;;;;;15.74;73.31;98170.34;4956481;28;102416;-70
2023/06/02 04:58:30;;;;;;;;;9.00;9.00;;;;;15.87;72.03;98170.03;4957576;28;101941;-71
2023/06/02 05:00:57;;;;;;;;;11.50;9.75;;;;;15.77;73.23;98171.72;4946795;28;104019;-70
2023/06/02 05:03:24;;;;;;;;;6.50;6.00;;;;;15.80;73.37;98174.81;4950064;28;102137;-70
2023/06/02 05:05:51;;;;;;;;;10.75;9.00;;;;;15.77;72.30;98180.75;4953158;28;102364;-70
2023/06/02 05:08:19;;;;;;;;;12.00;9.75;;;;;15.61;71.65;98189.72;4951181;28;102750;-70
2023/06/02 05:10:45;;;;;;;;;11.00;10.50;;;;;15.63;73.21;98184.84;4953060;28;104035;-71
2023/06/02 05:13:14;;;;;;;;;9.75;8.00;;;;;16.08;73.31;98185.66;4954136;28;102809;-70
2023/06/02 05:15:41;;;;;;;;;11.25;10.00;;;;;15.86;72.44;98182.00;4954886;28;102244;-70
2023/06/02 05:18:08;;;;;;;;;11.25;7.75;;;;;16.13;71.81;98178.66;4951611;28;102040;-71
2023/06/02 05:20:36;;;;;;;;;10.75;8.75;;;;;16.19;70.73;98185.84;4956049;28;104127;-71
2023/06/02 05:23:02;;;;;;;;;8.75;8.25;;;;;16.24;70.79;98181.31;4951624;28;102641;-71
2023/06/02 05:25:29;;;;;;;;;8.00;7.25;;;;;16.48;68.60;98199.16;4955132;28;102253;-71
2023/06/02 05:27:56;;;;;;;;;6.50;5.75;;;;;16.45;68.75;98199.66;4956293;28;102537;-71
2023/06/02 05:30:23;;;;;;;;;7.75;6.25;;;;;16.45;70.13;98196.94;4956894;28;104032;-72
2023/06/02 05:32:50;;;;;;;;;9.25;9.25;;;;;16.44;69.86;98197.16;4946763;28;103343;-70
2023/06/02 05:35:17;;;;;;;;;11.00;9.00;;;;;16.41;69.72;98197.69;4958848;28;101999;-71
2023/06/02 05:37:44;;;;;;;;;10.00;9.00;;;;;16.33;69.74;98200.81;4953044;28;103564;-70
2023/06/02 05:40:12;;;;;;;;;13.00;11.50;;;;;16.51;70.24;98209.59;4955354;28;103979;-70
2023/06/02 05:42:41;;;;;;;;;8.25;7.50;;;;;16.94;67.61;98213.53;4957468;28;102162;-71
2023/06/02 05:45:08;;;;;;;;;6.50;6.50;;;;;16.99;67.31;98215.50;4947215;28;101897;-71
2023/06/02 05:47:35;;;;;;;;;11.50;11.00;;;;;16.70;69.12;98215.66;4956291;28;102199;-71
2023/06/02 05:50:02;;;;;;;;;9.50;9.00;;;;;17.16;66.99;98216.28;4956153;28;104259;-71
2023/06/02 05:52:29;;;;;;;;;10.50;9.00;;;;;17.18;68.04;98219.63;4954659;28;102127;-71
2023/06/02 05:54:56;;;;;;;;;11.00;10.00;;;;;17.00;65.89;98226.19;4956363;28;104143;-71
2023/06/02 05:57:23;;;;;;;;;7.75;7.75;;;;;17.01;67.49;98235.22;4957309;28;102992;-70
2023/06/02 05:59:50;;;;;;;;;9.00;8.00;;;;;17.08;67.00;98230.41;4956517;28;104026;-71
2023/06/02 06:02:17;;;;;;;;;6.75;6.75;;;;;17.62;66.71;98224.03;4956247;28;102257;-70
2023/06/02 06:04:44;;;;;;;;;8.25;8.00;;;;;17.98;65.42;98224.44;4957157;28;102093;-70
2023/06/02 06:07:11;;;;;;;;;9.00;8.00;;;;;17.87;64.78;98219.97;4953749;28;104463;-69
2023/06/02 06:09:38;;;;;;;;;11.75;11.50;;;;;17.30;65.86;98229.34;4959186;28;104071;-69
2023/06/02 06:12:05;;;;;;;;;8.50;8.50;;;;;17.80;66.14;98234.66;4957245;28;102408;-72
2023/06/02 06:14:33;;;;;;;;;11.00;8.67;;;;;17.81;64.69;98235.47;4958646;28;101827;-71
2023/06/02 06:16:59;;;;;;;;;7.00;6.67;;;;;18.10;62.23;98239.59;4954902;28;101951;-70
2023/06/02 06:19:26;;;;;;;;;8.00;8.00;;;;;18.12;64.26;98236.63;4950764;28;104148;-71
2023/06/02 06:21:53;;;;;;;;;9.00;7.00;;;;;18.20;62.19;98230.69;4954459;28;102131;-70
2023/06/02 06:24:20;;;;;;;;;9.75;7.00;;;;;17.74;64.46;98229.38;4956587;28;102100;-71
2023/06/02 06:26:47;;;;;;;;;10.00;9.33;;;;;17.62;62.70;98229.50;4956681;28;102247;-71
2023/06/02 06:29:14;;;;;;;;;8.33;7.33;;;;;17.95;64.23;98230.44;4958129;28;103996;-71
2023/06/02 06:31:41;;;;;;;;;9.00;9.00;;;;;18.24;62.54;98231.81;4954190;28;107403;-69
2023/06/02 06:34:09;;;;;;;;;7.00;7.00;;;;;18.32;63.33;98236.84;4959335;28;101997;-70
2023/06/02 06:36:36;;;;;;;;;10.00;10.00;;;;;18.18;62.26;98235.59;4954527;28;102350;-72
2023/06/02 06:39:04;;;;;;;;;11.00;8.00;;;;;18.13;61.68;98236.38;4953453;28;104936;-71
2023/06/02 06:41:30;;;;;;;;;7.00;6.33;;;;;18.37;61.41;98236.06;4949497;28;101901;-70
2023/06/02 06:43:59;;;;;;;;;7.00;6.00;;;;;18.62;61.04;98244.50;4950739;28;102375;-70
2023/06/02 06:46:26;;;;;;;;;8.67;7.67;;;;;18.15;60.54;98252.50;4943694;28;102201;-71
2023/06/02 06:48:53;;;;;;;;;7.33;7.33;;;;;18.24;60.11;98253.69;4954917;28;103979;-71
2023/06/02 06:51:21;;;;;;;;;5.33;5.33;;;;;18.76;58.10;98247.63;4950616;28;102028;-70
2023/06/02 06:53:48;;;;;;;;;7.33;7.33;;;;;18.61;58.55;98238.19;4954876;28;102323;-70
2023/06/02 06:56:15;;;;;;;;;8.67;8.33;;;;;18.24;59.90;98242.75;4954296;28;102293;-71
2023/06/02 06:58:43;;;;;;;;;8.67;7.00;;;;;18.77;58.44;98243.81;4960106;28;104101;-71
2023/06/02 07:01:12;;;;;;;;;6.67;6.00;;;;;18.73;58.84;98246.25;4955336;28;102013;-71
2023/06/02 07:03:41;;;;;;;;;9.33;8.00;;;;;18.36;59.85;98248.91;4956753;28;102337;-72
2023/06/02 07:06:11;;;;;;;;;9.00;7.33;;;;;18.17;58.18;98255.84;4958553;28;102289;-71
2023/06/02 07:08:38;;;;;;;;;9.00;8.00;;;;;17.99;61.38;98247.97;4960500;28;107391;-72
2023/06/02 07:11:05;;;;;;;;;7.00;7.00;;;;;18.28;59.43;98241.97;4958032;28;102468;-71
2023/06/02 07:13:32;;;;;;;;;5.00;5.00;;;;;18.52;59.19;98247.13;4951571;28;102140;-72
2023/06/02 07:15:59;;;;;;;;;12.33;12.00;;;;;18.03;58.97;98254.59;4956337;28;102203;-73
2023/06/02 07:18:27;;;;;;;;;11.67;7.67;;;;;18.13;60.24;98254.69;4954659;28;104072;-71
2023/06/02 07:20:54;;;;;;;;;8.00;6.00;;;;;18.75;58.96;98256.94;4951918;28;103009;-72
2023/06/02 07:23:21;;;;;;;;;8.33;7.33;;;;;18.85;58.62;98246.06;4957230;28;102326;-71
2023/06/02 07:25:48;;;;;;;;;11.00;10.00;;;;;18.96;59.40;98251.34;4957499;28;102022;-71
2023/06/02 07:28:15;;;;;;;;;7.00;7.00;;;;;19.24;57.68;98261.13;4956211;28;103991;-71
2023/06/02 07:31:01;;;;;;;;;7.67;7.67;;;;;19.45;56.70;98254.69;4953760;28;101873;-72
2023/06/02 07:33:36;;;;;;;;;5.00;5.00;;;;;19.78;55.00;98245.22;4959229;28;102151;-72
2023/06/02 07:36:03;;;;;;;;;10.00;9.67;;;;;19.23;57.27;98248.50;4957716;28;102371;-71
2023/06/02 07:38:30;;;;;;;;;10.00;9.67;;;;;19.27;56.12;98255.13;4954443;28;103898;-71
2023/06/02 07:40:57;;;;;;;;;10.67;9.33;;;;;19.07;59.41;98250.31;4956354;28;102424;-71
2023/06/02 07:43:24;;;;;;;;;9.00;8.00;;;;;18.68;57.64;98196.91;4956191;28;101923;-71
2023/06/02 07:45:51;;;;;;;;;8.00;7.33;;;;;19.20;58.23;98246.28;4956292;28;102012;-70
2023/06/02 07:48:18;;;;;;;;;8.33;8.00;;;;;19.21;56.71;98250.69;4956128;28;103972;-70
2023/06/02 07:50:45;;;;;;;;;10.33;9.67;;;;;19.12;57.56;98255.03;4956184;28;102300;-70
2023/06/02 07:53:12;;;;;;;;;12.67;11.33;;;;;18.25;59.68;98247.97;4960245;28;102889;-72
2023/06/02 07:55:39;;;;;;;;;11.67;10.33;;;;;18.30;59.44;98244.47;4957103;28;102016;-71
2023/06/02 07:58:08;;;;;;;;;10.00;9.00;;;;;18.63;58.23;98244.25;4954725;28;104111;-70
2023/06/02 08:00:37;;;;;;;;;9.00;8.00;;;;;18.44;58.65;98237.47;4954298;28;101938;-72
2023/06/02 08:03:05;;;;;;;;;11.00;10.00;;;;;18.57;59.11;98245.28;4957495;28;101834;-71
2023/06/02 08:05:32;;;;;;;;;11.00;9.33;;;;;18.52;57.88;98258.91;4954028;28;101906;-72
2023/06/02 08:07:59;;;;;;;;;7.33;5.33;;;;;18.15;59.90;98253.34;4957142;28;107740;-71
2023/06/02 08:10:26;;;;;;;;;11.00;9.00;;;;;18.19;56.79;98259.16;4956024;28;102105;-72
2023/06/02 08:12:53;;;;;;;;;10.67;9.67;;;;;18.49;58.55;98247.66;4956775;28;102401;-72
2023/06/02 08:15:20;;;;;;;;;8.33;8.00;;;;;19.09;59.67;98248.13;4956292;28;101881;-71
2023/06/02 08:17:48;;;;;;;;;11.67;10.00;;;;;18.73;57.23;98258.00;4958370;28;104071;-71
2023/06/02 08:20:18;;;;;;;;;10.67;9.67;;;;;18.34;57.38;98251.06;4957951;28;102474;-70
2023/06/02 08:22:45;;;;;;;;;10.00;10.00;;;;;18.75;57.21;98256.94;4956339;28;102225;-71
2023/06/02 08:25:12;;;;;;;;;11.33;8.00;;;;;18.80;57.83;98254.22;4958953;28;101945;-70
2023/06/02 08:27:41;;;;;;;;;12.33;11.33;;;;;18.73;59.77;98253.66;4959894;28;108674;-71
2023/06/02 08:30:08;;;;;;;;;12.00;11.33;;;;;19.18;56.41;98263.00;4957659;28;102378;-71
2023/06/02 08:32:35;;;;;;;;;10.67;9.33;;;;;19.50;55.40;98262.94;4955643;28;102121;-71
2023/06/02 08:35:03;;;;;;;;;10.33;9.67;;;;;19.60;53.28;98260.25;4952362;28;102467;-72
2023/06/02 08:37:32;;;;;;;;;11.33;10.33;;;;;19.03;56.68;98251.13;4951690;28;104025;-71
2023/06/02 08:39:59;;;;;;;;;12.00;11.33;;;;;18.54;56.65;98266.91;4950567;28;102170;-71
2023/06/02 08:42:26;;;;;;;;;10.67;10.00;;;;;18.47;56.93;98267.06;4953285;28;101764;-72
2023/06/02 08:44:53;;;;;;;;;24.50;22.00;;;;;18.92;55.36;98263.91;4958434;28;102371;-71
2023/06/02 08:47:23;;;;;;;;;12.33;11.00;;;;;18.65;55.27;98263.97;4957833;28;103934;-72
2023/06/02 08:49:51;;;;;;;;;9.00;9.00;;;;;18.73;55.13;98263.50;4957714;28;102252;-73
2023/06/02 08:52:23;;;;;;;;;7.00;7.00;;;;;19.09;54.34;98258.31;4954638;28;102477;-71
2023/06/02 08:54:50;;;;;;;;;8.33;8.33;;;;;18.65;56.30;98257.66;4954694;28;101903;-72
2023/06/02 08:57:22;;;;;;;;;12.33;8.67;;;;;18.19;57.43;98265.44;4954404;28;104174;-72
2023/06/02 08:59:50;;;;;;;;;6.00;6.00;;;;;18.63;54.86;98259.88;4953409;28;101959;-69
2023/06/02 09:02:18;;;;;;;;;6.00;6.00;;;;;19.32;55.63;98263.34;4953196;28;101935;-70
2023/06/02 09:04:45;;;;;;;;;7.00;7.00;;;;;19.45;53.44;98257.41;4954635;28;102441;-70
2023/06/02 09:07:12;;;;;;;;;8.67;8.33;;;;;19.38;53.64;98259.56;4954338;28;104340;-70
2023/06/02 09:09:41;;;;;;;;;9.00;8.67;;;;;19.60;53.37;98252.03;4954590;28;102113;-71
2023/06/02 09:12:09;;;;;;;;;8.67;7.67;;;;;19.63;52.00;98258.06;4956660;28;102107;-71
2023/06/02 09:14:37;;;;;;;;;4.67;4.67;;;;;19.57;52.48;98260.78;4951284;28;101974;-71
2023/06/02 09:17:24;;;;;;;;;5.33;5.00;;;;;20.35;51.53;98258.06;4951922;28;104018;-70
2023/06/02 09:19:53;;;;;;;;;6.33;6.33;;;;;20.55;51.17;98270.97;4939975;28;102346;-73
2023/06/02 09:22:20;;;;;;;;;6.67;6.67;;;;;20.37;48.87;98267.66;4951478;28;102281;-71
2023/06/02 09:24:47;;;;;;;;;9.33;9.00;;;;;19.78;51.15;98274.56;4954475;28;102297;-71
2023/06/02 09:27:16;;;;;;;;;7.67;6.33;;;;;19.57;50.70;98255.31;4959143;28;104081;-72
2023/06/02 09:29:45;;;;;;;;;6.00;6.00;;;;;19.34;52.50;98263.94;4957846;28;102311;-71
2023/06/02 09:32:17;;;;;;;;;6.67;6.00;;;;;19.66;53.52;98257.53;4956436;28;102263;-70
2023/06/02 09:34:45;;;;;;;;;6.00;5.67;;;;;19.66;53.56;98263.84;4955395;28;102222;-72
2023/06/02 09:37:13;;;;;;;;;7.33;7.33;;;;;19.43;53.38;98254.13;4954025;28;108924;-71
2023/06/02 09:39:43;;;;;;;;;8.00;7.00;;;;;19.29;53.24;98261.16;4951775;28;101962;-72
2023/06/02 09:42:15;;;;;;;;;5.33;5.33;;;;;19.08;52.27;98267.59;4951151;28;106860;-71
2023/06/02 09:45:03;;;;;;;;;8.33;7.00;;;;;19.02;54.94;98279.59;4956321;28;102624;-71
2023/06/02 09:47:36;;;;;;;;;6.33;6.33;;;;;19.03;54.46;98273.03;4951500;28;108685;-71
2023/06/02 09:50:05;;;;;;;;;8.33;7.67;;;;;18.68;54.02;98257.16;4954221;28;102208;-72
2023/06/02 09:52:32;;;;;;;;;7.00;7.00;;;;;18.66;53.61;98273.84;4952149;28;102732;-72
2023/06/02 09:55:02;;;;;;;;;6.33;5.67;;;;;19.03;54.73;98260.16;4955785;28;103069;-71
2023/06/02 09:57:30;;;;;;;;;4.67;4.67;;;;;19.48;52.95;98262.38;4952311;28;104285;-70
2023/06/02 09:59:59;;;;;;;;;8.33;8.33;;;;;19.35;52.82;98267.50;4953667;28;102252;-71
2023/06/02 10:02:26;;;;;;;;;8.00;8.00;;;;;18.99;53.38;98269.19;4950884;28;102467;-72
2023/06/02 10:04:53;;;;;;;;;9.33;7.67;;;;;18.62;52.22;98264.50;4956624;28;102293;-72
2023/06/02 10:07:20;;;;;;;;;5.33;5.00;;;;;18.69;52.45;98265.09;4953567;28;104009;-72
2023/06/02 10:09:56;;;;;;;;;9.33;7.33;;;;;18.68;53.41;98268.13;4959171;28;102195;-72
2023/06/02 10:12:44;;;;;;;;;5.67;5.00;;;;;19.07;53.23;98265.94;4954932;28;102495;-72
2023/06/02 10:15:49;;;;;;;;;6.67;6.00;;;;;19.05;51.98;98268.94;4952845;28;102255;-70
2023/06/02 10:18:28;;;;;;;;;5.33;5.33;;;;;18.96;52.55;98270.50;4950628;28;108816;-72
2023/06/02 10:20:58;;;;;;;;;6.33;6.33;;;;;18.72;52.38;98269.25;4954696;28;103811;-71
2023/06/02 10:23:47;;;;;;;;;8.00;7.00;;;;;18.94;54.46;98266.41;4954853;28;102113;-71
2023/06/02 10:26:21;;;;;;;;;9.00;8.00;;;;;18.86;54.71;98269.63;4954233;28;102022;-71
2023/06/02 10:28:49;;;;;;;;;10.00;7.00;;;;;19.02;52.81;98274.13;4952143;28;108929;-71
2023/06/02 10:31:17;;;;;;;;;6.67;6.00;;;;;19.22;52.17;98273.44;4951605;28;104013;-72
2023/06/02 10:33:48;;;;;;;;;7.67;6.00;;;;;19.29;52.21;98269.38;4956960;28;101939;-72
2023/06/02 10:36:18;;;;;;;;;8.33;7.67;;;;;18.91;52.32;98269.69;4959932;28;102700;-73
2023/06/02 10:38:46;;;;;;;;;8.33;7.67;;;;;18.99;52.16;98264.53;4959930;28;104288;-72
2023/06/02 10:41:14;;;;;;;;;8.00;6.00;;;;;18.93;52.26;98270.22;4960868;28;101806;-72
2023/06/02 10:44:22;;;;;;;;;6.67;6.00;;;;;18.96;51.23;98280.66;4956707;28;102573;-72
2023/06/02 10:47:18;;;;;;;;;8.00;7.67;;;;;18.84;51.67;98285.50;4957069;28;102838;-72
2023/06/02 10:49:53;;;;;;;;;6.00;5.00;;;;;19.03;52.13;98281.25;4955458;28;109635;-72
2023/06/02 10:52:20;;;;;;;;;7.67;6.00;;;;;19.13;51.15;98276.69;4958003;28;101956;-73
2023/06/02 10:55:07;;;;;;;;;8.33;7.33;;;;;19.55;51.53;98278.59;4957430;28;101872;-73
2023/06/02 10:57:53;;;;;;;;;9.67;7.00;;;;;19.76;50.35;98283.09;4945517;28;102130;-71
2023/06/02 11:00:32;;;;;;;;;4.00;4.00;;;;;20.00;49.62;98277.94;4954580;28;108718;-73
2023/06/02 11:03:01;;;;;;;;;6.00;6.00;;;;;19.29;49.83;98258.41;4954331;28;102180;-72
2023/06/02 11:05:30;;;;;;;;;5.67;5.00;;;;;19.57;50.30;98276.41;4956336;28;103090;-71
2023/06/02 11:08:18;;;;;;;;;6.00;5.67;;;;;19.62;48.18;98273.69;4957910;28;102027;-72
2023/06/02 11:10:55;;;;;;;;;6.67;6.00;;;;;19.88;46.94;98275.47;4958861;28;108736;-72
2023/06/02 11:13:23;;;;;;;;;5.00;4.33;;;;;19.49;47.54;98276.94;4957195;28;102921;-72
2023/06/02 11:15:53;;;;;;;;;6.33;5.67;;;;;19.49;50.46;98285.16;4959374;28;101878;-72
2023/06/02 11:18:25;;;;;;;;;6.67;6.00;;;;;19.23;50.57;98286.88;4957389;28;102075;-73
2023/06/02 11:20:54;;;;;;;;;7.00;6.00;;;;;19.72;50.77;98286.66;4956356;28;103396;-72
2023/06/02 11:23:22;;;;;;;;;6.00;6.00;;;;;19.70;50.74;98288.81;4958645;28;102341;-72
2023/06/02 11:26:07;;;;;;;;;6.67;5.33;;;;;19.85;48.08;98288.91;4956038;28;102421;-70
2023/06/02 11:28:34;;;;;;;;;7.67;7.00;;;;;19.33;49.77;98288.84;4955681;28;102604;-72
2023/06/02 11:31:13;;;;;;;;;5.67;5.67;;;;;19.18;52.06;98300.56;4954426;28;104028;-71
2023/06/02 11:33:41;;;;;;;;;5.67;5.33;;;;;19.27;50.82;98299.00;4958328;28;102421;-71